Metars

EGJB - Guernsey Airport
Distance from station: SW 8km

Current
Nearby fog, Mostly cloudy
Nearby fog, Mostly cloudy
 Wind from WNW
Wind: WNW 8 mph , 13 km/h
Temperature: 16°C
Dew Point: 14°C
Humidity: 88%
Barometer: 1022 hPa
Summary: Nearby Fog
Clouds: Mostly Cloudy
Visibility: 4 miles , 6 km
Cloud details: Few Clouds 0 m
Mostly Cloudy 91 m
2018/06/20 14:50 EGJB 201450Z 29007KT 260V330 6000 1600W VCFG FEW000 BKN003 16/14 Q1022
EGJA - Alderney Airport
Distance from station: NE 37km

Current
Patches of fog, Mostly cloudy
Patches of fog, Mostly cloudy
 Wind from WSW
Wind: WSW 12 mph , 19 km/h
Summary: Patches of Fog
Clouds: Mostly Cloudy
Visibility: 0 mile , 1 km
Cloud details: Partly Cloudy 0 m
Mostly Cloudy 30 m
2018/06/20 14:50 EGJA 201450Z 25010KT 0500 R26/0800 BCFG SCT000 BKN001 15/// Q1022
EGJJ - Jersey Airport
Distance from station: SE 37km

Current
Nearby fog, Few clouds
Nearby fog, Few clouds
 Wind from W
Wind: W 9 mph , 15 km/h
Temperature: 17°C
Dew Point: 15°C
Humidity: 88%
Barometer: 1022 hPa
Summary: Nearby Fog
Clouds: Few Clouds
Visibility: 6 miles , 10 km
Cloud details: Few Clouds 0 m
2018/06/20 14:50 EGJJ 201450Z 28008KT 9999 1400SW R26/P2000 VCFG FEW000 17/15 Q1022